sensor_id;sensor_type;location;lat;lon;timestamp;pressure;altitude;pressure_sealevel;temperature;humidity
80678;BME280;70042;52.494;5.502;2023-07-08T00:01:56;102016.47;;;23.26;55.60
80678;BME280;70042;52.494;5.502;2023-07-08T00:04:22;102015.59;;;23.25;55.27
80678;BME280;70042;52.494;5.502;2023-07-08T00:06:47;102017.38;;;23.25;55.65
80678;BME280;70042;52.494;5.502;2023-07-08T00:09:13;102013.84;;;23.24;55.62
80678;BME280;70042;52.494;5.502;2023-07-08T00:11:38;102012.97;;;23.24;55.50
80678;BME280;70042;52.494;5.502;2023-07-08T00:14:04;102008.53;;;23.23;55.61
80678;BME280;70042;52.494;5.502;2023-07-08T00:16:29;102005.06;;;23.21;55.79
80678;BME280;70042;52.494;5.502;2023-07-08T00:18:55;102005.06;;;23.21;55.73
80678;BME280;70042;52.494;5.502;2023-07-08T00:21:20;102002.38;;;23.21;55.68
80678;BME280;70042;52.494;5.502;2023-07-08T00:23:47;102000.63;;;23.20;55.75
80678;BME280;70042;52.494;5.502;2023-07-08T00:26:26;102000.63;;;23.20;55.82
80678;BME280;70042;52.494;5.502;2023-07-08T00:32:15;102005.16;;;23.18;56.14
80678;BME280;70042;52.494;5.502;2023-07-08T00:34:41;102001.59;;;23.17;55.88
80678;BME280;70042;52.494;5.502;2023-07-08T00:37:13;102004.25;;;23.17;55.93
80678;BME280;70042;52.494;5.502;2023-07-08T00:39:39;101999.00;;;23.16;55.90
80678;BME280;70042;52.494;5.502;2023-07-08T00:42:19;101998.06;;;23.17;55.69
80678;BME280;70042;52.494;5.502;2023-07-08T00:44:48;102004.34;;;23.16;56.05
80678;BME280;70042;52.494;5.502;2023-07-08T00:47:14;101996.34;;;23.16;55.91
80678;BME280;70042;52.494;5.502;2023-07-08T00:49:56;101993.75;;;23.13;56.09
80678;BME280;70042;52.494;5.502;2023-07-08T00:52:26;101984.81;;;23.14;56.12
80678;BME280;70042;52.494;5.502;2023-07-08T00:54:58;101980.44;;;23.13;56.30
80678;BME280;70042;52.494;5.502;2023-07-08T00:57:26;101979.56;;;23.11;56.13
80678;BME280;70042;52.494;5.502;2023-07-08T01:00:02;101981.34;;;23.12;55.74
80678;BME280;70042;52.494;5.502;2023-07-08T01:02:30;101979.56;;;23.11;56.00
80678;BME280;70042;52.494;5.502;2023-07-08T01:07:23;101970.75;;;23.09;55.99
80678;BME280;70042;52.494;5.502;2023-07-08T01:09:55;101968.97;;;23.09;55.89
80678;BME280;70042;52.494;5.502;2023-07-08T01:12:27;101976.09;;;23.09;56.11
80678;BME280;70042;52.494;5.502;2023-07-08T01:14:54;101973.44;;;23.09;56.12
80678;BME280;70042;52.494;5.502;2023-07-08T01:17:22;101965.44;;;23.09;56.08
80678;BME280;70042;52.494;5.502;2023-07-08T01:19:47;101966.34;;;23.08;55.98
80678;BME280;70042;52.494;5.502;2023-07-08T01:22:14;101969.00;;;23.08;55.90
80678;BME280;70042;52.494;5.502;2023-07-08T01:24:41;101968.19;;;23.06;56.04
80678;BME280;70042;52.494;5.502;2023-07-08T01:27:11;101961.97;;;23.05;56.22
80678;BME280;70042;52.494;5.502;2023-07-08T01:29:38;101970.84;;;23.06;56.14
80678;BME280;70042;52.494;5.502;2023-07-08T01:32:03;101964.66;;;23.05;56.13
80678;BME280;70042;52.494;5.502;2023-07-08T01:34:30;101959.31;;;23.05;56.53
80678;BME280;70042;52.494;5.502;2023-07-08T01:36:56;101952.22;;;23.04;56.12
80678;BME280;70042;52.494;5.502;2023-07-08T01:39:24;101946.91;;;23.04;56.01
80678;BME280;70042;52.494;5.502;2023-07-08T01:41:50;101952.22;;;23.04;56.22
80678;BME280;70042;52.494;5.502;2023-07-08T01:44:35;101947.78;;;23.05;56.20
80678;BME280;70042;52.494;5.502;2023-07-08T01:47:14;101943.31;;;23.05;56.37
80678;BME280;70042;52.494;5.502;2023-07-08T01:49:43;101941.56;;;23.04;56.21
80678;BME280;70042;52.494;5.502;2023-07-08T01:52:10;101949.63;;;23.03;56.48
80678;BME280;70042;52.494;5.502;2023-07-08T01:54:37;101940.81;;;23.01;56.45
80678;BME280;70042;52.494;5.502;2023-07-08T01:57:03;101935.41;;;23.02;56.47
80678;BME280;70042;52.494;5.502;2023-07-08T01:59:28;101934.53;;;23.02;56.41
80678;BME280;70042;52.494;5.502;2023-07-08T02:01:54;101941.63;;;23.03;56.26
80678;BME280;70042;52.494;5.502;2023-07-08T02:04:24;101930.97;;;23.03;56.39
80678;BME280;70042;52.494;5.502;2023-07-08T02:06:57;101926.53;;;23.02;56.41
80678;BME280;70042;52.494;5.502;2023-07-08T02:09:24;101926.59;;;23.00;56.69
80678;BME280;70042;52.494;5.502;2023-07-08T02:11:50;101923.97;;;22.99;56.59
80678;BME280;70042;52.494;5.502;2023-07-08T02:14:16;101923.16;;;22.97;56.36
80678;BME280;70042;52.494;5.502;2023-07-08T02:16:41;101920.38;;;23.00;56.33
80678;BME280;70042;52.494;5.502;2023-07-08T02:19:06;101922.22;;;22.98;56.59
80678;BME280;70042;52.494;5.502;2023-07-08T02:21:32;101924.88;;;22.98;56.31
80678;BME280;70042;52.494;5.502;2023-07-08T02:24:00;101902.75;;;22.96;56.70
80678;BME280;70042;52.494;5.502;2023-07-08T02:26:25;101899.19;;;22.95;56.50
80678;BME280;70042;52.494;5.502;2023-07-08T02:28:51;101902.81;;;22.94;56.75
80678;BME280;70042;52.494;5.502;2023-07-08T02:31:17;101908.94;;;22.96;56.26
80678;BME280;70042;52.494;5.502;2023-07-08T02:33:42;101899.19;;;22.95;56.36
80678;BME280;70042;52.494;5.502;2023-07-08T02:36:07;101896.53;;;22.95;56.64
80678;BME280;70042;52.494;5.502;2023-07-08T02:38:33;101900.06;;;22.96;56.39
80678;BME280;70042;52.494;5.502;2023-07-08T02:40:59;101886.81;;;22.94;56.47
80678;BME280;70042;52.494;5.502;2023-07-08T02:43:24;101885.06;;;22.93;56.78
80678;BME280;70042;52.494;5.502;2023-07-08T02:45:50;101885.09;;;22.92;56.62
80678;BME280;70042;52.494;5.502;2023-07-08T02:48:17;101886.91;;;22.91;56.65
80678;BME280;70042;52.494;5.502;2023-07-08T02:50:43;101886.03;;;22.91;56.82
80678;BME280;70042;52.494;5.502;2023-07-08T02:53:08;101879.81;;;22.90;56.54
80678;BME280;70042;52.494;5.502;2023-07-08T02:55:33;101878.03;;;22.91;56.54
80678;BME280;70042;52.494;5.502;2023-07-08T02:57:59;101880.72;;;22.89;56.68
80678;BME280;70042;52.494;5.502;2023-07-08T03:00:24;101882.56;;;22.87;56.59
80678;BME280;70042;52.494;5.502;2023-07-08T03:02:49;101873.69;;;22.87;56.48
80678;BME280;70042;52.494;5.502;2023-07-08T03:05:15;101877.28;;;22.85;56.56
80678;BME280;70042;52.494;5.502;2023-07-08T03:07:40;101882.56;;;22.87;56.58
80678;BME280;70042;52.494;5.502;2023-07-08T03:10:05;101879.06;;;22.85;56.65
80678;BME280;70042;52.494;5.502;2023-07-08T03:12:31;101879.03;;;22.87;56.81
80678;BME280;70042;52.494;5.502;2023-07-08T03:14:57;101880.00;;;22.84;56.47
80678;BME280;70042;52.494;5.502;2023-07-08T03:17:22;101873.78;;;22.83;56.71
80678;BME280;70042;52.494;5.502;2023-07-08T03:19:47;101865.81;;;22.83;56.63
80678;BME280;70042;52.494;5.502;2023-07-08T03:22:13;101867.59;;;22.83;56.83
80678;BME280;70042;52.494;5.502;2023-07-08T03:24:38;101875.66;;;22.81;56.62
80678;BME280;70042;52.494;5.502;2023-07-08T03:27:11;101877.38;;;22.82;56.80
80678;BME280;70042;52.494;5.502;2023-07-08T03:29:36;101868.56;;;22.80;56.58
80678;BME280;70042;52.494;5.502;2023-07-08T03:32:02;101868.56;;;22.80;56.82
80678;BME280;70042;52.494;5.502;2023-07-08T03:34:28;101865.09;;;22.78;56.91
80678;BME280;70042;52.494;5.502;2023-07-08T03:36:53;101872.13;;;22.79;56.80
80678;BME280;70042;52.494;5.502;2023-07-08T03:39:20;101863.25;;;22.79;56.89
80678;BME280;70042;52.494;5.502;2023-07-08T03:41:46;101869.47;;;22.79;56.77
80678;BME280;70042;52.494;5.502;2023-07-08T03:44:12;101871.25;;;22.79;56.75
80678;BME280;70042;52.494;5.502;2023-07-08T03:46:38;101869.53;;;22.78;56.88
80678;BME280;70042;52.494;5.502;2023-07-08T03:49:04;101877.47;;;22.79;56.60
80678;BME280;70042;52.494;5.502;2023-07-08T03:51:31;101874.81;;;22.79;56.61
80678;BME280;70042;52.494;5.502;2023-07-08T03:53:57;101867.75;;;22.78;56.65
80678;BME280;70042;52.494;5.502;2023-07-08T03:56:23;101876.66;;;22.77;56.75
80678;BME280;70042;52.494;5.502;2023-07-08T03:58:49;101872.22;;;22.76;56.80
80678;BME280;70042;52.494;5.502;2023-07-08T04:01:17;101878.50;;;22.75;56.79
80678;BME280;70042;52.494;5.502;2023-07-08T04:03:43;101880.28;;;22.75;56.74
80678;BME280;70042;52.494;5.502;2023-07-08T04:06:09;101882.97;;;22.73;56.82
80678;BME280;70042;52.494;5.502;2023-07-08T04:08:34;101886.53;;;22.74;56.89
80678;BME280;70042;52.494;5.502;2023-07-08T04:10:59;101882.97;;;22.73;56.82
80678;BME280;70042;52.494;5.502;2023-07-08T04:13:25;101885.63;;;22.75;56.66
80678;BME280;70042;52.494;5.502;2023-07-08T04:15:56;101889.19;;;22.74;56.90
80678;BME280;70042;52.494;5.502;2023-07-08T04:18:23;101888.31;;;22.73;56.82
80678;BME280;70042;52.494;5.502;2023-07-08T04:20:48;101885.66;;;22.73;56.96
80678;BME280;70042;52.494;5.502;2023-07-08T04:23:18;101886.56;;;22.72;57.00
80678;BME280;70042;52.494;5.502;2023-07-08T04:25:43;101885.69;;;22.72;56.63
80678;BME280;70042;52.494;5.502;2023-07-08T04:28:09;101895.47;;;22.71;56.90
80678;BME280;70042;52.494;5.502;2023-07-08T04:30:34;101888.31;;;22.73;56.76
80678;BME280;70042;52.494;5.502;2023-07-08T04:33:06;101891.88;;;22.72;57.02
80678;BME280;70042;52.494;5.502;2023-07-08T04:35:33;101890.97;;;22.73;56.99
80678;BME280;70042;52.494;5.502;2023-07-08T04:37:59;101897.22;;;22.72;57.02
80678;BME280;70042;52.494;5.502;2023-07-08T04:40:25;101886.56;;;22.72;56.90
80678;BME280;70042;52.494;5.502;2023-07-08T04:42:50;101891.03;;;22.72;57.20
80678;BME280;70042;52.494;5.502;2023-07-08T04:45:17;101891.88;;;22.72;57.11
80678;BME280;70042;52.494;5.502;2023-07-08T04:47:43;101891.88;;;22.72;57.04
80678;BME280;70042;52.494;5.502;2023-07-08T04:50:12;101883.06;;;22.70;57.06
80678;BME280;70042;52.494;5.502;2023-07-08T04:52:38;101887.53;;;22.70;56.90
80678;BME280;70042;52.494;5.502;2023-07-08T04:55:03;101882.19;;;22.70;56.63
80678;BME280;70042;52.494;5.502;2023-07-08T04:57:28;101883.06;;;22.70;56.81
80678;BME280;70042;52.494;5.502;2023-07-08T04:59:54;101895.50;;;22.70;56.70
80678;BME280;70042;52.494;5.502;2023-07-08T05:02:19;101879.53;;;22.70;56.96
80678;BME280;70042;52.494;5.502;2023-07-08T05:04:45;101888.41;;;22.70;56.91
80678;BME280;70042;52.494;5.502;2023-07-08T05:07:10;101877.75;;;22.70;56.84
80678;BME280;70042;52.494;5.502;2023-07-08T05:09:35;101876.88;;;22.70;57.08
80678;BME280;70042;52.494;5.502;2023-07-08T05:12:01;101875.97;;;22.71;56.79
80678;BME280;70042;52.494;5.502;2023-07-08T05:14:26;101880.41;;;22.70;57.00
80678;BME280;70042;52.494;5.502;2023-07-08T05:16:52;101879.53;;;22.70;57.28
80678;BME280;70042;52.494;5.502;2023-07-08T05:19:17;101883.06;;;22.70;57.10
80678;BME280;70042;52.494;5.502;2023-07-08T05:21:44;101886.66;;;22.69;57.21
80678;BME280;70042;52.494;5.502;2023-07-08T05:24:10;101877.81;;;22.69;57.45
80678;BME280;70042;52.494;5.502;2023-07-08T05:26:35;101880.47;;;22.69;57.38
80678;BME280;70042;52.494;5.502;2023-07-08T05:29:01;101881.31;;;22.69;57.35
80678;BME280;70042;52.494;5.502;2023-07-08T05:31:27;101885.78;;;22.69;57.12
80678;BME280;70042;52.494;5.502;2023-07-08T05:33:52;101877.75;;;22.70;57.08
80678;BME280;70042;52.494;5.502;2023-07-08T05:36:18;101874.19;;;22.70;56.91
80678;BME280;70042;52.494;5.502;2023-07-08T05:38:44;101868.88;;;22.70;56.90
80678;BME280;70042;52.494;5.502;2023-07-08T05:41:09;101879.50;;;22.71;56.84
80678;BME280;70042;52.494;5.502;2023-07-08T05:43:34;101874.16;;;22.71;56.49
80678;BME280;70042;52.494;5.502;2023-07-08T05:46:00;101874.16;;;22.71;56.89
80678;BME280;70042;52.494;5.502;2023-07-08T05:48:26;101876.78;;;22.73;56.82
80678;BME280;70042;52.494;5.502;2023-07-08T05:50:51;101877.66;;;22.73;56.44
80678;BME280;70042;52.494;5.502;2023-07-08T05:53:18;101881.16;;;22.75;56.53
80678;BME280;70042;52.494;5.502;2023-07-08T05:55:44;101870.53;;;22.74;56.80
80678;BME280;70042;52.494;5.502;2023-07-08T05:58:10;101874.06;;;22.74;56.67
80678;BME280;70042;52.494;5.502;2023-07-08T06:00:36;101864.28;;;22.75;56.67
80678;BME280;70042;52.494;5.502;2023-07-08T06:03:02;101870.50;;;22.75;56.58
80678;BME280;70042;52.494;5.502;2023-07-08T06:05:27;101869.56;;;22.76;56.44
80678;BME280;70042;52.494;5.502;2023-07-08T06:07:52;101863.31;;;22.77;56.39
80678;BME280;70042;52.494;5.502;2023-07-08T06:10:18;101859.75;;;22.78;56.41
80678;BME280;70042;52.494;5.502;2023-07-08T06:12:43;101863.22;;;22.80;56.17
80678;BME280;70042;52.494;5.502;2023-07-08T06:15:09;101870.31;;;22.81;56.32
80678;BME280;70042;52.494;5.502;2023-07-08T06:17:34;101865.00;;;22.81;56.21
80678;BME280;70042;52.494;5.502;2023-07-08T06:19:59;101861.38;;;22.82;56.20
80678;BME280;70042;52.494;5.502;2023-07-08T06:22:27;101854.25;;;22.83;56.31
80678;BME280;70042;52.494;5.502;2023-07-08T06:24:52;101858.72;;;22.82;56.62
80678;BME280;70042;52.494;5.502;2023-07-08T06:27:17;101860.47;;;22.83;56.38
80678;BME280;70042;52.494;5.502;2023-07-08T06:29:43;101859.66;;;22.81;56.26
80678;BME280;70042;52.494;5.502;2023-07-08T06:32:08;101859.66;;;22.81;56.59
80678;BME280;70042;52.494;5.502;2023-07-08T06:34:34;101850.72;;;22.82;56.37
80678;BME280;70042;52.494;5.502;2023-07-08T06:36:59;101847.16;;;22.83;56.59
80678;BME280;70042;52.494;5.502;2023-07-08T06:39:24;101852.47;;;22.83;56.47
80678;BME280;70042;52.494;5.502;2023-07-08T06:41:50;101853.25;;;22.87;56.89
80678;BME280;70042;52.494;5.502;2023-07-08T06:44:15;101855.88;;;22.89;56.48
80678;BME280;70042;52.494;5.502;2023-07-08T06:46:40;101862.13;;;22.88;56.79
80678;BME280;70042;52.494;5.502;2023-07-08T06:49:06;101850.63;;;22.85;56.60
80678;BME280;70042;52.494;5.502;2023-07-08T06:51:34;101846.19;;;22.86;56.59
80678;BME280;70042;52.494;5.502;2023-07-08T06:53:59;101850.59;;;22.87;56.66
80678;BME280;70042;52.494;5.502;2023-07-08T06:56:25;101851.47;;;22.88;56.70
80678;BME280;70042;52.494;5.502;2023-07-08T06:58:50;101852.38;;;22.87;56.62
80678;BME280;70042;52.494;5.502;2023-07-08T07:01:15;101861.28;;;22.85;56.35
80678;BME280;70042;52.494;5.502;2023-07-08T07:03:42;101852.38;;;22.87;56.69
80678;BME280;70042;52.494;5.502;2023-07-08T07:06:08;101854.13;;;22.88;56.56
80678;BME280;70042;52.494;5.502;2023-07-08T07:08:33;101848.81;;;22.88;56.64
80678;BME280;70042;52.494;5.502;2023-07-08T07:10:59;101854.06;;;22.89;56.73
80678;BME280;70042;52.494;5.502;2023-07-08T07:13:24;101852.28;;;22.90;56.79
80678;BME280;70042;52.494;5.502;2023-07-08T07:15:49;101846.97;;;22.90;56.76
80678;BME280;70042;52.494;5.502;2023-07-08T07:18:14;101846.97;;;22.90;56.95
80678;BME280;70042;52.494;5.502;2023-07-08T07:20:47;101844.25;;;22.91;56.72
80678;BME280;70042;52.494;5.502;2023-07-08T07:23:14;101848.72;;;22.91;56.93
80678;BME280;70042;52.494;5.502;2023-07-08T07:25:39;101852.19;;;22.93;56.53
80678;BME280;70042;52.494;5.502;2023-07-08T07:28:04;101857.50;;;22.94;56.72
80678;BME280;70042;52.494;5.502;2023-07-08T07:30:30;101863.63;;;22.96;56.76
80678;BME280;70042;52.494;5.502;2023-07-08T07:32:59;101863.63;;;22.96;56.39
80678;BME280;70042;52.494;5.502;2023-07-08T07:35:25;101866.22;;;22.98;56.45
80678;BME280;70042;52.494;5.502;2023-07-08T07:37:50;101868.00;;;22.99;55.95
80678;BME280;70042;52.494;5.502;2023-07-08T07:40:16;101864.41;;;23.00;55.88
80678;BME280;70042;52.494;5.502;2023-07-08T07:42:42;101866.16;;;23.01;55.96
80678;BME280;70042;52.494;5.502;2023-07-08T07:45:08;101869.66;;;23.03;56.18
80678;BME280;70042;52.494;5.502;2023-07-08T07:47:34;101871.41;;;23.04;56.24
80678;BME280;70042;52.494;5.502;2023-07-08T07:50:00;101866.06;;;23.04;56.13
80678;BME280;70042;52.494;5.502;2023-07-08T07:52:26;101861.56;;;23.06;56.36
80678;BME280;70042;52.494;5.502;2023-07-08T07:54:51;101859.69;;;23.08;56.14
80678;BME280;70042;52.494;5.502;2023-07-08T07:57:17;101858.78;;;23.09;55.93
80678;BME280;70042;52.494;5.502;2023-07-08T07:59:42;101864.06;;;23.10;55.95
80678;BME280;70042;52.494;5.502;2023-07-08T08:02:08;101848.91;;;23.12;56.03
80678;BME280;70042;52.494;5.502;2023-07-08T08:04:34;101860.44;;;23.13;56.02
80678;BME280;70042;52.494;5.502;2023-07-08T08:06:59;101846.16;;;23.15;56.44
80678;BME280;70042;52.494;5.502;2023-07-08T08:09:25;101862.94;;;23.17;56.87
80678;BME280;70042;52.494;5.502;2023-07-08T08:11:50;101864.66;;;23.20;56.77
80678;BME280;70042;52.494;5.502;2023-07-08T08:14:17;101856.53;;;23.23;57.11
80678;BME280;70042;52.494;5.502;2023-07-08T08:16:44;101859.19;;;23.24;57.03
80678;BME280;70042;52.494;5.502;2023-07-08T08:19:09;101852.88;;;23.27;56.99
80678;BME280;70042;52.494;5.502;2023-07-08T08:21:34;101844.84;;;23.28;56.96
80678;BME280;70042;52.494;5.502;2023-07-08T08:24:00;101851.84;;;23.31;57.24
80678;BME280;70042;52.494;5.502;2023-07-08T08:26:25;101839.31;;;23.33;57.04
80678;BME280;70042;52.494;5.502;2023-07-08T08:28:51;101842.84;;;23.35;57.08
80678;BME280;70042;52.494;5.502;2023-07-08T08:31:16;101843.66;;;23.37;57.20
80678;BME280;70042;52.494;5.502;2023-07-08T08:33:41;101842.75;;;23.38;57.09
80678;BME280;70042;52.494;5.502;2023-07-08T08:36:07;101834.72;;;23.38;56.72
80678;BME280;70042;52.494;5.502;2023-07-08T08:38:32;101844.47;;;23.41;56.91
80678;BME280;70042;52.494;5.502;2023-07-08T08:40:57;101837.34;;;23.41;56.67
80678;BME280;70042;52.494;5.502;2023-07-08T08:43:26;101839.94;;;23.43;56.85
80678;BME280;70042;52.494;5.502;2023-07-08T08:48:26;101838.94;;;23.45;56.56
80678;BME280;70042;52.494;5.502;2023-07-08T08:50:56;101840.72;;;23.46;56.54
80678;BME280;70042;52.494;5.502;2023-07-08T08:53:25;101839.78;;;23.47;56.42
80678;BME280;70042;52.494;5.502;2023-07-08T08:56:00;101846.84;;;23.48;56.77
80678;BME280;70042;52.494;5.502;2023-07-08T08:58:44;101845.03;;;23.50;56.49
80678;BME280;70042;52.494;5.502;2023-07-08T09:01:13;101848.50;;;23.52;56.94
80678;BME280;70042;52.494;5.502;2023-07-08T09:03:47;101846.69;;;23.54;56.78
80678;BME280;70042;52.494;5.502;2023-07-08T09:08:39;101845.69;;;23.57;56.40
80678;BME280;70042;52.494;5.502;2023-07-08T09:13:43;101841.13;;;23.60;56.51
80678;BME280;70042;52.494;5.502;2023-07-08T09:21:45;101840.91;;;23.66;56.29
80678;BME280;70042;52.494;5.502;2023-07-08T09:24:17;101841.78;;;23.67;56.55
80678;BME280;70042;52.494;5.502;2023-07-08T09:26:45;101850.59;;;23.69;56.40
80678;BME280;70042;52.494;5.502;2023-07-08T09:29:12;101850.53;;;23.70;56.37
80678;BME280;70042;52.494;5.502;2023-07-08T09:31:38;101856.72;;;23.72;56.44
80678;BME280;70042;52.494;5.502;2023-07-08T09:34:23;101859.28;;;23.75;56.32
80678;BME280;70042;52.494;5.502;2023-07-08T09:36:50;101854.75;;;23.77;56.41
80678;BME280;70042;52.494;5.502;2023-07-08T09:39:18;101841.38;;;23.79;56.20
80678;BME280;70042;52.494;5.502;2023-07-08T09:41:46;101843.97;;;23.80;56.44
80678;BME280;70042;52.494;5.502;2023-07-08T09:46:40;101840.28;;;23.84;56.41
80678;BME280;70042;52.494;5.502;2023-07-08T09:49:31;101849.09;;;23.86;56.34
80678;BME280;70042;52.494;5.502;2023-07-08T09:51:57;101843.75;;;23.86;56.29
80678;BME280;70042;52.494;5.502;2023-07-08T09:54:24;101845.50;;;23.87;56.37
80678;BME280;70042;52.494;5.502;2023-07-08T09:59:46;101845.41;;;23.90;56.25
80678;BME280;70042;52.494;5.502;2023-07-08T10:02:26;101847.16;;;23.92;56.24
80678;BME280;70042;52.494;5.502;2023-07-08T10:04:57;101848.88;;;23.92;56.15
80678;BME280;70042;52.494;5.502;2023-07-08T10:07:24;101855.03;;;23.95;56.04
80678;BME280;70042;52.494;5.502;2023-07-08T10:09:54;101851.44;;;23.96;56.01
80678;BME280;70042;52.494;5.502;2023-07-08T10:12:23;101862.00;;;23.99;56.07
80678;BME280;70042;52.494;5.502;2023-07-08T10:14:52;101862.00;;;23.99;56.16
80678;BME280;70042;52.494;5.502;2023-07-08T10:17:20;101864.63;;;24.00;55.73
80678;BME280;70042;52.494;5.502;2023-07-08T10:19:46;101861.84;;;24.03;55.86
80678;BME280;70042;52.494;5.502;2023-07-08T10:27:56;101850.19;;;24.06;55.90
80678;BME280;70042;52.494;5.502;2023-07-08T10:30:26;101855.53;;;24.06;55.91
80678;BME280;70042;52.494;5.502;2023-07-08T10:38:48;101853.59;;;24.11;55.74
80678;BME280;70042;52.494;5.502;2023-07-08T10:47:30;101843.59;;;24.17;55.65
80678;BME280;70042;52.494;5.502;2023-07-08T10:52:54;101851.53;;;24.19;55.62
80678;BME280;70042;52.494;5.502;2023-07-08T10:58:13;101848.75;;;24.22;55.55
80678;BME280;70042;52.494;5.502;2023-07-08T11:03:33;101851.38;;;24.23;55.58
80678;BME280;70042;52.494;5.502;2023-07-08T11:08:37;101824.59;;;24.25;55.51
80678;BME280;70042;52.494;5.502;2023-07-08T11:13:45;101821.91;;;24.25;55.50
80678;BME280;70042;52.494;5.502;2023-07-08T11:18:54;101818.22;;;24.29;55.32
80678;BME280;70042;52.494;5.502;2023-07-08T11:21:26;101812.88;;;24.29;55.40
80678;BME280;70042;52.494;5.502;2023-07-08T11:26:20;101817.88;;;24.38;55.10
80678;BME280;70042;52.494;5.502;2023-07-08T11:28:51;101813.31;;;24.40;55.25
80678;BME280;70042;52.494;5.502;2023-07-08T11:31:18;101812.38;;;24.42;54.86
80678;BME280;70042;52.494;5.502;2023-07-08T11:33:46;101811.50;;;24.42;54.37
80678;BME280;70042;52.494;5.502;2023-07-08T11:36:12;101820.31;;;24.44;54.78
80678;BME280;70042;52.494;5.502;2023-07-08T11:38:48;101816.72;;;24.45;54.73
80678;BME280;70042;52.494;5.502;2023-07-08T11:41:16;101815.84;;;24.45;54.69
80678;BME280;70042;52.494;5.502;2023-07-08T11:43:51;101808.63;;;24.47;54.91
80678;BME280;70042;52.494;5.502;2023-07-08T11:46:26;101813.03;;;24.48;54.75
80678;BME280;70042;52.494;5.502;2023-07-08T11:48:55;101804.97;;;24.49;54.90
80678;BME280;70042;52.494;5.502;2023-07-08T11:51:36;101804.91;;;24.51;54.67
80678;BME280;70042;52.494;5.502;2023-07-08T11:54:21;101799.50;;;24.52;54.78
80678;BME280;70042;52.494;5.502;2023-07-08T11:59:20;101796.75;;;24.55;54.71
80678;BME280;70042;52.494;5.502;2023-07-08T12:01:53;101798.47;;;24.56;54.71
80678;BME280;70042;52.494;5.502;2023-07-08T12:04:31;101801.97;;;24.58;54.86
80678;BME280;70042;52.494;5.502;2023-07-08T12:07:12;101793.00;;;24.59;54.67
80678;BME280;70042;52.494;5.502;2023-07-08T12:09:57;101794.75;;;24.60;54.89
80678;BME280;70042;52.494;5.502;2023-07-08T12:12:31;101792.88;;;24.62;54.86
80678;BME280;70042;52.494;5.502;2023-07-08T12:15:04;101789.28;;;24.63;54.79
80678;BME280;70042;52.494;5.502;2023-07-08T12:17:31;101786.59;;;24.63;54.73
80678;BME280;70042;52.494;5.502;2023-07-08T12:19:56;101783.84;;;24.65;54.90
80678;BME280;70042;52.494;5.502;2023-07-08T12:22:24;101788.28;;;24.66;54.85
80678;BME280;70042;52.494;5.502;2023-07-08T12:24:49;101789.16;;;24.66;54.92
80678;BME280;70042;52.494;5.502;2023-07-08T12:27:15;101780.16;;;24.69;54.82
80678;BME280;70042;52.494;5.502;2023-07-08T12:29:40;101785.44;;;24.70;54.84
80678;BME280;70042;52.494;5.502;2023-07-08T12:32:08;101784.56;;;24.70;54.87
80678;BME280;70042;52.494;5.502;2023-07-08T12:34:35;101775.63;;;24.71;54.85
80678;BME280;70042;52.494;5.502;2023-07-08T12:37:01;101775.56;;;24.72;54.86
80678;BME280;70042;52.494;5.502;2023-07-08T12:39:32;101779.97;;;24.73;54.95
80678;BME280;70042;52.494;5.502;2023-07-08T12:41:59;101777.22;;;24.75;54.88
80678;BME280;70042;52.494;5.502;2023-07-08T12:44:25;101775.44;;;24.75;54.93
80678;BME280;70042;52.494;5.502;2023-07-08T12:46:54;101763.81;;;24.76;54.84
80678;BME280;70042;52.494;5.502;2023-07-08T12:49:20;101777.09;;;24.78;54.96
80678;BME280;70042;52.494;5.502;2023-07-08T12:51:47;101775.31;;;24.78;54.98
80678;BME280;70042;52.494;5.502;2023-07-08T12:54:13;101769.03;;;24.79;54.82
80678;BME280;70042;52.494;5.502;2023-07-08T12:56:40;101771.63;;;24.81;54.93
80678;BME280;70042;52.494;5.502;2023-07-08T12:59:07;101763.59;;;24.81;54.84
80678;BME280;70042;52.494;5.502;2023-07-08T13:01:35;101763.59;;;24.82;54.83
80678;BME280;70042;52.494;5.502;2023-07-08T13:04:06;101760.84;;;24.84;54.87
80678;BME280;70042;52.494;5.502;2023-07-08T13:06:35;101765.34;;;24.83;54.88
80678;BME280;70042;52.494;5.502;2023-07-08T13:09:16;101763.47;;;24.85;54.90
80678;BME280;70042;52.494;5.502;2023-07-08T13:11:47;101759.03;;;24.84;54.83
80678;BME280;70042;52.494;5.502;2023-07-08T13:14:13;101761.69;;;24.86;54.72
80678;BME280;70042;52.494;5.502;2023-07-08T13:16:40;101773.25;;;24.86;54.81
80678;BME280;70042;52.494;5.502;2023-07-08T13:19:05;101767.81;;;24.88;54.91
80678;BME280;70042;52.494;5.502;2023-07-08T13:21:31;101761.56;;;24.89;54.85
80678;BME280;70042;52.494;5.502;2023-07-08T13:23:58;101768.69;;;24.88;55.10
80678;BME280;70042;52.494;5.502;2023-07-08T13:26:25;101765.94;;;24.90;54.89
80678;BME280;70042;52.494;5.502;2023-07-08T13:28:59;101759.75;;;24.89;55.02
80678;BME280;70042;52.494;5.502;2023-07-08T13:31:32;101764.13;;;24.90;54.85
80678;BME280;70042;52.494;5.502;2023-07-08T13:34:09;101766.81;;;24.90;54.81
80678;BME280;70042;52.494;5.502;2023-07-08T13:36:39;101756.94;;;24.92;54.87
80678;BME280;70042;52.494;5.502;2023-07-08T13:39:08;101764.97;;;24.92;54.88
80678;BME280;70042;52.494;5.502;2023-07-08T13:41:34;101760.47;;;24.93;54.85
80678;BME280;70042;52.494;5.502;2023-07-08T13:44:07;101762.22;;;24.94;54.79
80678;BME280;70042;52.494;5.502;2023-07-08T13:49:00;101766.56;;;24.97;54.80
80678;BME280;70042;52.494;5.502;2023-07-08T13:51:30;101772.78;;;24.97;54.78
80678;BME280;70042;52.494;5.502;2023-07-08T13:54:08;101773.66;;;24.98;54.85
80678;BME280;70042;52.494;5.502;2023-07-08T13:56:34;101767.38;;;24.99;54.78
80678;BME280;70042;52.494;5.502;2023-07-08T13:59:03;101767.31;;;25.00;54.83